Terminal Aerodrome Forecast
Issued by NWS

Home | Current Version | Previous Version | Text Only | Print | Product List | Glossary On
Versions: 1 2 3 4 5 6 7 8 9 10 11 12 13 14 15 16 17 18 19 20 21 22 23 24 25 26
000
FTUS45 KTFX 190536
TAFCTB
TAF
KCTB 190536Z 1906/2006 24021KT P6SM FEW090 BKN180 WS020/28045KT
     FM191600 24024G32KT P6SM SCT060 BKN090
     FM192000 25030G45KT P6SM SCT050 BKN080
     FM200100 27019G31KT P6SM SCT045 BKN100 PROB30 2003/2006 4SM
      -SHRA BKN035=

USA.gov is the U.S. government's official web portal to all federal, state and local government web resources and services.